createdAt,value
2016-05-12T00:00:02.289Z,62.3
2016-05-12T00:00:12.289Z,62.4
2016-05-12T00:00:22.289Z,62.5
2016-05-12T00:00:32.292Z,62.5
2016-05-12T00:00:42.136Z,62.3
2016-05-12T00:00:52.308Z,62.5
2016-05-12T00:01:02.323Z,62.5
2016-05-12T00:01:12.167Z,62.4
2016-05-12T00:01:22.323Z,62.6
2016-05-12T00:01:32.341Z,62.3
2016-05-12T00:01:42.169Z,62.5
2016-05-12T00:01:52.310Z,62.5
2016-05-12T00:02:02.325Z,62.3
2016-05-12T00:02:12.325Z,62.1
2016-05-12T00:02:22.341Z,62.3
2016-05-12T00:02:32.185Z,62.4
2016-05-12T00:02:42.328Z,62.2
2016-05-12T00:02:52.172Z,62.5
2016-05-12T00:03:02.344Z,62.7
2016-05-12T00:03:12.344Z,62.7
2016-05-12T00:03:22.344Z,62.7
2016-05-12T00:03:32.344Z,62.8
2016-05-12T00:03:42.362Z,62.7
2016-05-12T00:03:52.362Z,62.9
2016-05-12T00:04:02.362Z,62.5
2016-05-12T00:04:12.347Z,62.6
2016-05-12T00:04:22.362Z,62.8
2016-05-12T00:04:32.206Z,62.3
2016-05-12T00:04:42.364Z,62.3
2016-05-12T00:04:52.380Z,62.6
2016-05-12T00:05:02.224Z,62.8
2016-05-12T00:05:12.380Z,62.8
2016-05-12T00:05:22.380Z,62.7
2016-05-12T00:05:32.239Z,62.5
2016-05-12T00:05:42.227Z,62.3
2016-05-12T00:05:52.242Z,62.4
2016-05-12T00:06:02.399Z,62.2
2016-05-12T00:06:12.399Z,62.3
2016-05-12T00:06:22.399Z,62.3
2016-05-12T00:06:32.399Z,62.1
2016-05-12T00:06:42.401Z,62.4
2016-05-12T00:06:52.401Z,62.3
2016-05-12T00:07:02.416Z,62.4
2016-05-12T00:07:12.260Z,62.5
2016-05-12T00:07:22.416Z,62.5
2016-05-12T00:07:32.416Z,62.5
2016-05-12T00:07:42.419Z,62.5
2016-05-12T00:07:52.419Z,62.3
2016-05-12T00:08:02.435Z,62.4
2016-05-12T00:08:12.122Z,62.3
2016-05-12T00:08:22.435Z,62.4
2016-05-12T00:08:32.279Z,62.4
2016-05-12T00:08:42.438Z,62.5
2016-05-12T00:08:52.454Z,62.5
2016-05-12T00:09:02.438Z,62.3
2016-05-12T00:09:12.438Z,62.4
2016-05-12T00:09:22.454Z,62.3
2016-05-12T00:09:32.627Z,62.5
2016-05-12T00:09:42.471Z,62.5
2016-05-12T00:09:52.471Z,62.5
2016-05-12T00:10:02.456Z,62.1
2016-05-12T00:10:12.315Z,61.9
2016-05-12T00:10:22.471Z,61.9
2016-05-12T00:10:32.315Z,62.5
2016-05-12T00:10:42.475Z,62
2016-05-12T00:10:52.491Z,62.5
2016-05-12T00:11:02.475Z,62
2016-05-12T00:11:12.475Z,62
2016-05-12T00:11:22.491Z,62
2016-05-12T00:11:32.491Z,62.2
2016-05-12T00:11:42.352Z,61.7
2016-05-12T00:11:52.493Z,61.8
2016-05-12T00:12:02.508Z,62
2016-05-12T00:12:12.493Z,62.1
2016-05-12T00:12:22.493Z,62.3
2016-05-12T00:12:32.508Z,62.5
2016-05-12T00:12:42.355Z,62.3
2016-05-12T00:12:52.511Z,62.2
2016-05-12T00:13:02.511Z,62.4
2016-05-12T00:13:12.511Z,62.3
2016-05-12T00:13:22.527Z,61.8
2016-05-12T00:13:32.527Z,61.9
2016-05-12T00:13:42.233Z,62
2016-05-12T00:13:52.530Z,61.9
2016-05-12T00:14:02.374Z,62
2016-05-12T00:14:12.530Z,62
2016-05-12T00:14:22.530Z,62.5
2016-05-12T00:14:32.546Z,62.1
2016-05-12T00:14:42.407Z,61.8
2016-05-12T00:14:52.548Z,61.9
2016-05-12T00:15:02.391Z,62.1
2016-05-12T00:15:12.548Z,62.2
2016-05-12T00:15:22.548Z,61.8
2016-05-12T00:15:32.407Z,61.9
2016-05-12T00:15:42.566Z,61.7
2016-05-12T00:15:52.269Z,62.5
2016-05-12T00:16:02.676Z,61.6
2016-05-12T00:16:12.441Z,62.2
2016-05-12T00:16:22.582Z,61.9
2016-05-12T00:16:32.598Z,62.1
2016-05-12T00:16:42.584Z,62
2016-05-12T00:16:52.584Z,62.1
2016-05-12T00:17:02.428Z,61.8
2016-05-12T00:17:12.428Z,62.2
2016-05-12T00:17:22.600Z,61.9
2016-05-12T00:17:32.428Z,62
2016-05-12T00:17:42.603Z,62
2016-05-12T00:17:52.603Z,61.9
2016-05-12T00:18:02.603Z,62.3
2016-05-12T00:18:12.603Z,61.8
2016-05-12T00:18:22.462Z,62.3
2016-05-12T00:18:32.603Z,62.2
2016-05-12T00:18:42.606Z,62.2
2016-05-12T00:18:52.465Z,61.8
2016-05-12T00:19:02.465Z,61.8
2016-05-12T00:19:12.621Z,62.1
2016-05-12T00:19:22.637Z,62
2016-05-12T00:19:32.465Z,62.1
2016-05-12T00:19:42.624Z,62.1
2016-05-12T00:19:52.640Z,62
2016-05-12T00:20:02.640Z,62.5
2016-05-12T00:20:12.640Z,62.5
2016-05-12T00:20:22.640Z,62
2016-05-12T00:20:32.655Z,62
2016-05-12T00:20:42.642Z,61.9
2016-05-12T00:20:52.501Z,62
2016-05-12T00:21:02.657Z,62
2016-05-12T00:21:12.657Z,62
2016-05-12T00:21:22.657Z,62.1
2016-05-12T00:21:32.673Z,62
2016-05-12T00:21:42.660Z,62
2016-05-12T00:21:52.660Z,62
2016-05-12T00:22:02.676Z,62
2016-05-12T00:22:12.692Z,62
2016-05-12T00:22:22.676Z,62.1
2016-05-12T00:22:32.520Z,61.9
2016-05-12T00:22:42.678Z,62.1
2016-05-12T00:22:52.678Z,61.8
2016-05-12T00:23:02.709Z,61.9
2016-05-12T00:23:12.694Z,62
2016-05-12T00:23:22.709Z,62.5
2016-05-12T00:23:32.537Z,62.3
2016-05-12T00:23:42.698Z,62.4
2016-05-12T00:23:52.698Z,62.4
2016-05-12T00:24:02.713Z,62.4
2016-05-12T00:24:12.557Z,62.3
2016-05-12T00:24:22.729Z,62.3
2016-05-12T00:24:32.713Z,62.3
2016-05-12T00:24:42.560Z,62.3
2016-05-12T00:24:52.716Z,62.5
2016-05-12T00:25:02.716Z,62.5
2016-05-12T00:25:12.716Z,62
2016-05-12T00:25:22.732Z,61.8
2016-05-12T00:25:32.748Z,62
2016-05-12T00:25:42.734Z,62.1
2016-05-12T00:25:52.593Z,62.1
2016-05-12T00:26:02.734Z,61.9
2016-05-12T00:26:12.734Z,61.9
2016-05-12T00:26:22.750Z,62.5
2016-05-12T00:26:32.750Z,62.5
2016-05-12T00:26:42.611Z,62.4
2016-05-12T00:26:52.752Z,62.2
2016-05-12T00:27:02.752Z,62.3
2016-05-12T00:27:12.752Z,62
2016-05-12T00:27:22.767Z,62.4
2016-05-12T00:27:32.767Z,62.1
2016-05-12T00:27:42.770Z,62
2016-05-12T00:27:52.630Z,62.1
2016-05-12T00:28:02.458Z,62.3
2016-05-12T00:28:12.630Z,62.1
2016-05-12T00:28:22.786Z,62.3
2016-05-12T00:28:32.786Z,62.1
2016-05-12T00:28:42.632Z,62.3
2016-05-12T00:28:52.788Z,62.5
2016-05-12T00:29:02.647Z,62.5
2016-05-12T00:29:12.788Z,62.3
2016-05-12T00:29:22.803Z,62.5
2016-05-12T00:29:32.803Z,62.5
2016-05-12T00:29:42.806Z,62.3
2016-05-12T00:29:52.806Z,61.9
2016-05-12T00:30:02.822Z,61.8
2016-05-12T00:30:12.806Z,62.3
2016-05-12T00:30:22.822Z,62.2
2016-05-12T00:30:32.822Z,62.8
2016-05-12T00:30:42.809Z,62
2016-05-12T00:30:52.825Z,62.2
2016-05-12T00:31:02.825Z,62.3
2016-05-12T00:31:12.841Z,62.4
2016-05-12T00:31:22.841Z,62.8
2016-05-12T00:31:33.125Z,62.9
2016-05-12T00:31:42.687Z,62.9
2016-05-12T00:31:52.828Z,63
2016-05-12T00:32:02.844Z,63
2016-05-12T00:32:12.844Z,63
2016-05-12T00:32:22.844Z,62.5
2016-05-12T00:32:32.859Z,62.9
2016-05-12T00:32:42.862Z,63.2
2016-05-12T00:32:52.862Z,62.9
2016-05-12T00:33:02.862Z,62.9
2016-05-12T00:33:12.862Z,62.6
2016-05-12T00:33:22.862Z,62.9
2016-05-12T00:33:32.878Z,62.6
2016-05-12T00:33:42.864Z,62.7
2016-05-12T00:33:52.880Z,62.8
2016-05-12T00:34:02.880Z,62.7
2016-05-12T00:34:12.880Z,62.7
2016-05-12T00:34:22.739Z,62.2
2016-05-12T00:34:32.880Z,62.2
2016-05-12T00:34:42.899Z,62.3
2016-05-12T00:34:52.742Z,62.4
2016-05-12T00:35:02.742Z,62.2
2016-05-12T00:35:12.899Z,62.5
2016-05-12T00:35:22.899Z,62.5
2016-05-12T00:35:32.899Z,62.7
2016-05-12T00:35:42.917Z,62.6
2016-05-12T00:35:52.902Z,62.6
2016-05-12T00:36:02.902Z,62.5
2016-05-12T00:36:12.761Z,62.7
2016-05-12T00:36:22.917Z,62.8
2016-05-12T00:36:32.917Z,62.9
2016-05-12T00:36:43.044Z,62.8
2016-05-12T00:36:52.935Z,62.8
2016-05-12T00:37:02.935Z,62.9
2016-05-12T00:37:12.935Z,62.8
2016-05-12T00:37:22.779Z,62.8
2016-05-12T00:37:32.935Z,62.7
2016-05-12T00:37:42.953Z,62.7
2016-05-12T00:37:52.797Z,62.8
2016-05-12T00:38:02.938Z,62.8
2016-05-12T00:38:12.969Z,62.7
2016-05-12T00:38:22.953Z,62.2
2016-05-12T00:38:32.969Z,62.4
2016-05-12T00:38:42.972Z,62.2
2016-05-12T00:38:52.956Z,62.5
2016-05-12T00:39:02.956Z,62.4
2016-05-12T00:39:12.956Z,62.5
2016-05-12T00:39:22.972Z,62.3
2016-05-12T00:39:32.972Z,62.2
2016-05-12T00:39:42.975Z,62.3
2016-05-12T00:39:52.991Z,62.5
2016-05-12T00:40:02.975Z,62.3
2016-05-12T00:40:12.834Z,62.7
2016-05-12T00:40:22.991Z,62.7
2016-05-12T00:40:33.022Z,62.6
2016-05-12T00:40:42.993Z,62.9
2016-05-12T00:40:52.836Z,62.9
2016-05-12T00:41:02.993Z,62.6
2016-05-12T00:41:12.993Z,62.7
2016-05-12T00:41:23.008Z,62.6
2016-05-12T00:41:33.008Z,62.6
2016-05-12T00:41:43.011Z,62.5
2016-05-12T00:41:52.855Z,62.7
2016-05-12T00:42:03.027Z,62.6
2016-05-12T00:42:13.027Z,62.8
2016-05-12T00:42:23.011Z,63
2016-05-12T00:42:33.027Z,63
2016-05-12T00:42:43.045Z,62.9
2016-05-12T00:42:53.029Z,62.9
2016-05-12T00:43:02.873Z,62.9
2016-05-12T00:43:13.060Z,62.6
2016-05-12T00:43:23.045Z,62.6
2016-05-12T00:43:33.060Z,62.7
2016-05-12T00:43:43.048Z,62.8
2016-05-12T00:43:53.048Z,62.9
2016-05-12T00:44:03.063Z,63
2016-05-12T00:44:13.048Z,62.8
2016-05-12T00:44:23.048Z,62.8
2016-05-12T00:44:33.048Z,62.9
2016-05-12T00:44:43.065Z,62.9
2016-05-12T00:44:53.065Z,62.9
2016-05-12T00:45:03.081Z,62.4
2016-05-12T00:45:13.065Z,62.5
2016-05-12T00:45:23.081Z,63.1
2016-05-12T00:45:33.081Z,62.9
2016-05-12T00:45:43.084Z,63
2016-05-12T00:45:53.209Z,63.1
2016-05-12T00:46:03.006Z,63
2016-05-12T00:46:13.131Z,62.5
2016-05-12T00:46:23.349Z,62.5
2016-05-12T00:46:33.115Z,62.5
2016-05-12T00:46:43.088Z,63.3
2016-05-12T00:46:53.088Z,63.2
2016-05-12T00:47:03.103Z,63.2
2016-05-12T00:47:13.307Z,63
2016-05-12T00:47:23.103Z,62.9
2016-05-12T00:47:33.119Z,63
2016-05-12T00:47:43.105Z,63.2
2016-05-12T00:47:53.121Z,62.9
2016-05-12T00:48:03.121Z,63.1
2016-05-12T00:48:13.121Z,62.8
2016-05-12T00:48:23.121Z,63
2016-05-12T00:48:33.215Z,63.1
2016-05-12T00:48:43.140Z,62.9
2016-05-12T00:48:53.140Z,63.1
2016-05-12T00:49:03.124Z,63.2
2016-05-12T00:49:13.140Z,63.2
2016-05-12T00:49:22.983Z,63.3
2016-05-12T00:49:33.015Z,62.8
2016-05-12T00:49:43.157Z,62.9
2016-05-12T00:49:53.142Z,63.1
2016-05-12T00:50:03.157Z,63
2016-05-12T00:50:13.157Z,63.1
2016-05-12T00:50:23.001Z,63.1
2016-05-12T00:50:33.157Z,63
2016-05-12T00:50:43.020Z,63
2016-05-12T00:50:53.192Z,62.8
2016-05-12T00:51:03.160Z,63.3
2016-05-12T00:51:13.176Z,63
2016-05-12T00:51:23.176Z,63.4
2016-05-12T00:51:33.176Z,62.4
2016-05-12T00:51:43.022Z,62.5
2016-05-12T00:51:53.178Z,62.6
2016-05-12T00:52:03.194Z,62.7
2016-05-12T00:52:13.194Z,62.5
2016-05-12T00:52:23.178Z,62.8
2016-05-12T00:52:33.194Z,62.8
2016-05-12T00:52:43.197Z,62.9
2016-05-12T00:52:53.197Z,62.9
2016-05-12T00:53:03.197Z,63.1
2016-05-12T00:53:13.197Z,63
2016-05-12T00:53:23.212Z,63.2
2016-05-12T00:53:33.056Z,63
2016-05-12T00:53:43.215Z,62.6
2016-05-12T00:53:53.215Z,62.5
2016-05-12T00:54:03.231Z,62.8
2016-05-12T00:54:13.215Z,62.5
2016-05-12T00:54:23.231Z,62.7
2016-05-12T00:54:33.231Z,62.6
2016-05-12T00:54:43.234Z,62.6
2016-05-12T00:54:53.234Z,62.7
2016-05-12T00:55:03.234Z,62.4
2016-05-12T00:55:13.249Z,62.8
2016-05-12T00:55:23.234Z,62.9
2016-05-12T00:55:33.249Z,62.9
2016-05-12T00:55:43.251Z,62.8
2016-05-12T00:55:53.251Z,62.7
2016-05-12T00:56:03.251Z,62.9
2016-05-12T00:56:13.251Z,62.8
2016-05-12T00:56:23.251Z,62.9
2016-05-12T00:56:33.251Z,62.7
2016-05-12T00:56:43.129Z,62.9
2016-05-12T00:56:53.270Z,62.6
2016-05-12T00:57:03.270Z,62.9
2016-05-12T00:57:13.270Z,62.9
2016-05-12T00:57:23.270Z,63.4
2016-05-12T00:57:33.129Z,63.2
2016-05-12T00:57:43.289Z,63.1
2016-05-12T00:57:53.132Z,63
2016-05-12T00:58:03.132Z,63.1
2016-05-12T00:58:13.289Z,63.1
2016-05-12T00:58:23.304Z,63.2
2016-05-12T00:58:33.304Z,63.3
2016-05-12T00:58:43.151Z,63.1
2016-05-12T00:58:53.307Z,62.8
2016-05-12T00:59:03.307Z,62.9
2016-05-12T00:59:13.307Z,63.1
2016-05-12T00:59:23.323Z,62.9
2016-05-12T00:59:33.307Z,63
2016-05-12T00:59:43.325Z,63.1
2016-05-12T00:59:53.325Z,63.1
2016-05-12T01:00:03.325Z,63.2
2016-05-12T01:00:13.325Z,63.1
2016-05-12T01:00:23.325Z,63
2016-05-12T01:00:33.341Z,63.1
2016-05-12T01:00:43.186Z,63
2016-05-12T01:00:53.343Z,63
2016-05-12T01:01:03.889Z,63
2016-05-12T01:01:13.233Z,63
2016-05-12T01:01:23.327Z,63
2016-05-12T01:01:33.499Z,63
2016-05-12T01:01:43.378Z,63
2016-05-12T01:01:53.362Z,63
2016-05-12T01:02:03.206Z,62.9
2016-05-12T01:02:13.206Z,62.9
2016-05-12T01:02:23.362Z,62.8
2016-05-12T01:02:33.378Z,63.2
2016-05-12T01:02:43.225Z,62.9
2016-05-12T01:02:53.381Z,62.8
2016-05-12T01:03:03.381Z,63.1
2016-05-12T01:03:13.225Z,62.9
2016-05-12T01:03:23.381Z,63
2016-05-12T01:03:33.381Z,63
2016-05-12T01:03:43.398Z,63.4
2016-05-12T01:03:53.398Z,63.5
2016-05-12T01:04:03.383Z,63.1
2016-05-12T01:04:13.383Z,63.6
2016-05-12T01:04:23.398Z,63.4
2016-05-12T01:04:33.242Z,63.5
2016-05-12T01:04:43.416Z,63.8
2016-05-12T01:04:53.400Z,63.1
2016-05-12T01:05:03.260Z,63.3
2016-05-12T01:05:13.416Z,63
2016-05-12T01:05:23.260Z,63
2016-05-12T01:05:33.275Z,62.8
2016-05-12T01:05:43.263Z,63.2
2016-05-12T01:05:53.419Z,63.2
2016-05-12T01:06:03.419Z,63.2
2016-05-12T01:06:13.435Z,63.2
2016-05-12T01:06:23.435Z,63.1
2016-05-12T01:06:33.435Z,63
2016-05-12T01:06:43.281Z,62.9
2016-05-12T01:06:53.438Z,63.1
2016-05-12T01:07:03.438Z,63.1
2016-05-12T01:07:13.438Z,63.3
2016-05-12T01:07:23.453Z,63.1
2016-05-12T01:07:33.453Z,63
2016-05-12T01:07:43.472Z,63.3
2016-05-12T01:07:53.456Z,63.4
2016-05-12T01:08:03.456Z,63.1
2016-05-12T01:08:13.472Z,63.4
2016-05-12T01:08:23.316Z,63.3
2016-05-12T01:08:33.472Z,63.2
2016-05-12T01:08:43.475Z,63.3
2016-05-12T01:08:53.475Z,63
2016-05-12T01:09:03.491Z,63.1
2016-05-12T01:09:13.491Z,63.2
2016-05-12T01:09:23.475Z,63.1
2016-05-12T01:09:33.475Z,63.1
2016-05-12T01:09:43.493Z,63.3
2016-05-12T01:09:53.493Z,63.3
2016-05-12T01:10:03.493Z,63.1
2016-05-12T01:10:13.493Z,63.3
2016-05-12T01:10:23.493Z,63.3
2016-05-12T01:10:33.508Z,63.6
2016-05-12T01:10:43.511Z,63.8
2016-05-12T01:10:53.355Z,63.6
2016-05-12T01:11:03.511Z,63.6
2016-05-12T01:11:13.511Z,63.4
2016-05-12T01:11:23.511Z,63.5
2016-05-12T01:11:33.621Z,63.4
2016-05-12T01:11:43.529Z,63.6
2016-05-12T01:11:53.529Z,63.7
2016-05-12T01:12:03.529Z,63.6
2016-05-12T01:12:13.529Z,63.6
2016-05-12T01:12:23.373Z,63.6
2016-05-12T01:12:33.544Z,63.6
2016-05-12T01:12:43.641Z,64
2016-05-12T01:12:53.547Z,64
2016-05-12T01:13:03.547Z,63.8
2016-05-12T01:13:13.391Z,63.8
2016-05-12T01:13:23.547Z,63.8
2016-05-12T01:13:33.547Z,63.8
2016-05-12T01:13:43.832Z,63.9
2016-05-12T01:13:53.410Z,64.1
2016-05-12T01:14:03.410Z,63.5
2016-05-12T01:14:13.566Z,63.7
2016-05-12T01:14:23.566Z,63.7
2016-05-12T01:14:33.566Z,63.6
2016-05-12T01:14:43.585Z,63.6
2016-05-12T01:14:53.413Z,63.6
2016-05-12T01:15:03.600Z,64
2016-05-12T01:15:13.585Z,63.8
2016-05-12T01:15:23.585Z,63.7
2016-05-12T01:15:33.616Z,63.8
2016-05-12T01:15:43.588Z,64
2016-05-12T01:15:53.603Z,64.1
2016-05-12T01:16:03.603Z,64
2016-05-12T01:16:13.463Z,63.7
2016-05-12T01:16:23.619Z,63.8
2016-05-12T01:16:33.463Z,64
2016-05-12T01:16:43.621Z,63.9
2016-05-12T01:16:53.465Z,63.8
2016-05-12T01:17:03.465Z,63.5
2016-05-12T01:17:13.465Z,63.5
2016-05-12T01:17:23.621Z,64
2016-05-12T01:17:33.465Z,63.9
2016-05-12T01:17:43.623Z,64
2016-05-12T01:17:53.482Z,64
2016-05-12T01:18:03.623Z,63.9
2016-05-12T01:18:13.639Z,64.1
2016-05-12T01:18:23.639Z,64
2016-05-12T01:18:33.639Z,63.6
2016-05-12T01:18:43.657Z,64
2016-05-12T01:18:53.657Z,63.6
2016-05-12T01:19:03.642Z,63.6
2016-05-12T01:19:13.501Z,63.6
2016-05-12T01:19:23.642Z,63.7
2016-05-12T01:19:33.751Z,63.7
2016-05-12T01:19:43.660Z,63.7
2016-05-12T01:19:53.660Z,63.5
2016-05-12T01:20:03.660Z,63.6
2016-05-12T01:20:13.520Z,63.6
2016-05-12T01:20:23.520Z,63.8
2016-05-12T01:20:33.676Z,64.1
2016-05-12T01:20:43.725Z,63.9
2016-05-12T01:20:53.678Z,63.9
2016-05-12T01:21:03.678Z,63.9
2016-05-12T01:21:13.522Z,64
2016-05-12T01:21:23.678Z,63.8
2016-05-12T01:21:33.678Z,63.8
2016-05-12T01:21:43.541Z,63.6
2016-05-12T01:21:53.697Z,63.6
2016-05-12T01:22:03.697Z,63.7
2016-05-12T01:22:13.697Z,63.7
2016-05-12T01:22:23.697Z,63.8
2016-05-12T01:22:33.713Z,63.9
2016-05-12T01:22:43.559Z,64
2016-05-12T01:22:53.559Z,64.1
2016-05-12T01:23:03.715Z,64.2
2016-05-12T01:23:13.715Z,64.1
2016-05-12T01:23:23.559Z,64.3
2016-05-12T01:23:33.715Z,64.3
2016-05-12T01:23:43.734Z,64.6
2016-05-12T01:23:53.734Z,64.6
2016-05-12T01:24:03.734Z,63.9
2016-05-12T01:24:13.734Z,63.7
2016-05-12T01:24:23.577Z,63.8
2016-05-12T01:24:33.437Z,63.8
2016-05-12T01:24:43.737Z,63.8
2016-05-12T01:24:53.768Z,63.8
2016-05-12T01:25:03.752Z,63.7
2016-05-12T01:25:13.612Z,64
2016-05-12T01:25:23.752Z,64
2016-05-12T01:25:33.596Z,64.1
2016-05-12T01:25:43.754Z,64.3
2016-05-12T01:25:53.770Z,64.5
2016-05-12T01:26:03.770Z,64.5
2016-05-12T01:26:13.770Z,64.5
2016-05-12T01:26:23.614Z,64.5
2016-05-12T01:26:33.832Z,64.5
2016-05-12T01:26:43.820Z,64.7
2016-05-12T01:26:53.804Z,64.5
2016-05-12T01:27:03.804Z,64.2
2016-05-12T01:27:13.804Z,64.3
2016-05-12T01:27:23.648Z,64.6
2016-05-12T01:27:33.789Z,64.5
2016-05-12T01:27:43.681Z,64.5
2016-05-12T01:27:53.822Z,64.2
2016-05-12T01:28:03.822Z,64.3
2016-05-12T01:28:13.806Z,64.2
2016-05-12T01:28:23.822Z,64.4
2016-05-12T01:28:33.806Z,64.2
2016-05-12T01:28:43.809Z,64.3
2016-05-12T01:28:53.809Z,64.5
2016-05-12T01:29:03.653Z,64.7
2016-05-12T01:29:13.809Z,64.5
2016-05-12T01:29:23.809Z,64.1
2016-05-12T01:29:33.825Z,64.2
2016-05-12T01:29:43.828Z,64.5
2016-05-12T01:29:53.828Z,64.5
2016-05-12T01:30:03.843Z,64.1
2016-05-12T01:30:13.890Z,64.1
2016-05-12T01:30:23.828Z,64.7
2016-05-12T01:30:33.843Z,64.6
2016-05-12T01:30:43.846Z,64.6
2016-05-12T01:30:53.690Z,64.5
2016-05-12T01:31:03.846Z,64.1
2016-05-12T01:31:13.862Z,64.2
2016-05-12T01:31:23.706Z,64
2016-05-12T01:31:34.221Z,64.1
2016-05-12T01:31:44.348Z,64.3
2016-05-12T01:31:53.739Z,64.2
2016-05-12T01:32:03.708Z,64.4
2016-05-12T01:32:13.880Z,64.3
2016-05-12T01:32:23.864Z,64.1
2016-05-12T01:32:33.880Z,64.6
2016-05-12T01:32:43.883Z,64.2
2016-05-12T01:32:53.883Z,64.3
2016-05-12T01:33:03.883Z,64.4
2016-05-12T01:33:13.726Z,64.4
2016-05-12T01:33:23.898Z,64.2
2016-05-12T01:33:33.898Z,64.3
2016-05-12T01:33:43.588Z,64.3
2016-05-12T01:33:53.900Z,64.3
2016-05-12T01:34:03.900Z,64.4
2016-05-12T01:34:13.900Z,64.3
2016-05-12T01:34:23.744Z,64.3
2016-05-12T01:34:33.900Z,64.3
2016-05-12T01:34:43.763Z,64.3
2016-05-12T01:34:53.763Z,64.2
2016-05-12T01:35:03.919Z,64.3
2016-05-12T01:35:13.919Z,64.3
2016-05-12T01:35:23.763Z,64.3
2016-05-12T01:35:33.919Z,64.5
2016-05-12T01:35:43.922Z,64.5
2016-05-12T01:35:53.766Z,64.3
2016-05-12T01:36:03.938Z,64.5
2016-05-12T01:36:13.938Z,64.3
2016-05-12T01:36:23.797Z,64.2
2016-05-12T01:36:33.938Z,64.3
2016-05-12T01:36:43.784Z,64.5
2016-05-12T01:36:53.956Z,64.4
2016-05-12T01:37:03.956Z,64.3
2016-05-12T01:37:13.956Z,64.5
2016-05-12T01:37:23.816Z,64.5
2016-05-12T01:37:33.956Z,64.5
2016-05-12T01:37:43.959Z,64.5
2016-05-12T01:37:53.819Z,64.6
2016-05-12T01:38:03.959Z,64.5
2016-05-12T01:38:13.975Z,64.4
2016-05-12T01:38:23.819Z,64.3
2016-05-12T01:38:33.990Z,64.5
2016-05-12T01:38:44.008Z,64.5
2016-05-12T01:38:53.992Z,64.5
2016-05-12T01:39:03.977Z,64.4
2016-05-12T01:39:13.992Z,64.3
2016-05-12T01:39:23.992Z,64.5
2016-05-12T01:39:33.992Z,64.3
2016-05-12T01:39:43.839Z,64.7
2016-05-12T01:39:53.995Z,64.3
2016-05-12T01:40:03.995Z,64.4
2016-05-12T01:40:14.011Z,64.5
2016-05-12T01:40:24.011Z,64.6
2016-05-12T01:40:34.011Z,64.6
2016-05-12T01:40:44.013Z,64.4
2016-05-12T01:40:54.013Z,64.4
2016-05-12T01:41:04.013Z,64.6
2016-05-12T01:41:13.857Z,64.5
2016-05-12T01:41:24.029Z,64.3
2016-05-12T01:41:34.029Z,64.4
2016-05-12T01:41:44.345Z,64.6
2016-05-12T01:41:54.064Z,64.3
2016-05-12T01:42:04.048Z,64.6
2016-05-12T01:42:14.033Z,64.6
2016-05-12T01:42:24.033Z,64.6
2016-05-12T01:42:34.033Z,64.4
2016-05-12T01:42:44.050Z,64.2
2016-05-12T01:42:53.894Z,64.8
2016-05-12T01:43:03.894Z,64.6
2016-05-12T01:43:14.050Z,64.9
2016-05-12T01:43:24.066Z,64.8
2016-05-12T01:43:34.066Z,64.5
2016-05-12T01:43:43.927Z,65.3
2016-05-12T01:43:54.068Z,65
2016-05-12T01:44:04.068Z,65.1
2016-05-12T01:44:14.068Z,65
2016-05-12T01:44:24.068Z,64.9
2016-05-12T01:44:34.084Z,64.7
2016-05-12T01:44:44.071Z,65.1
2016-05-12T01:44:54.087Z,65
2016-05-12T01:45:04.087Z,65.1
2016-05-12T01:45:13.930Z,64.7
2016-05-12T01:45:24.087Z,64.7
2016-05-12T01:45:34.087Z,64.9
2016-05-12T01:45:43.949Z,64.8
2016-05-12T01:45:54.090Z,64.9
2016-05-12T01:46:03.949Z,64.8
2016-05-12T01:46:14.371Z,65
2016-05-12T01:46:23.918Z,65
2016-05-12T01:46:34.511Z,65
2016-05-12T01:46:43.968Z,64.9
2016-05-12T01:46:54.139Z,65
2016-05-12T01:47:04.124Z,64.7
2016-05-12T01:47:14.124Z,64.9
2016-05-12T01:47:23.968Z,64.8
2016-05-12T01:47:34.124Z,65.1
2016-05-12T01:47:44.126Z,64.9
2016-05-12T01:47:54.141Z,64.9
2016-05-12T01:48:04.141Z,64.8
2016-05-12T01:48:14.001Z,64.9
2016-05-12T01:48:23.985Z,65
2016-05-12T01:48:34.141Z,65
2016-05-12T01:48:44.144Z,64.8
2016-05-12T01:48:54.160Z,64.9
2016-05-12T01:49:04.160Z,64.8
2016-05-12T01:49:14.144Z,64.7
2016-05-12T01:49:24.160Z,65
2016-05-12T01:49:34.160Z,64.9
2016-05-12T01:49:44.163Z,65
2016-05-12T01:49:54.022Z,65
2016-05-12T01:50:04.194Z,64.9
2016-05-12T01:50:14.179Z,64.8
2016-05-12T01:50:24.179Z,64.8
2016-05-12T01:50:34.022Z,64.9
2016-05-12T01:50:44.181Z,65.1
2016-05-12T01:50:54.181Z,65.2
2016-05-12T01:51:04.196Z,65.2
2016-05-12T01:51:14.196Z,65.2
2016-05-12T01:51:24.196Z,65.3
2016-05-12T01:51:34.196Z,64.9
2016-05-12T01:51:44.231Z,65
2016-05-12T01:51:54.215Z,64.8
2016-05-12T01:52:04.059Z,64.9
2016-05-12T01:52:14.199Z,65
2016-05-12T01:52:24.059Z,65
2016-05-12T01:52:34.215Z,64.9
2016-05-12T01:52:44.218Z,65
2016-05-12T01:52:54.218Z,65.1
2016-05-12T01:53:04.312Z,64.9
2016-05-12T01:53:14.437Z,65
2016-05-12T01:53:24.280Z,64.8
2016-05-12T01:53:34.234Z,64.7
2016-05-12T01:53:44.079Z,65
2016-05-12T01:53:54.236Z,65
2016-05-12T01:54:04.236Z,65
2016-05-12T01:54:14.236Z,65.2
2016-05-12T01:54:24.236Z,64.9
2016-05-12T01:54:34.236Z,64.9
2016-05-12T01:54:44.254Z,64.8
2016-05-12T01:54:54.254Z,65
2016-05-12T01:55:04.254Z,64.9
2016-05-12T01:55:14.098Z,65
2016-05-12T01:55:24.254Z,65.4
2016-05-12T01:55:34.254Z,65.4
2016-05-12T01:55:44.117Z,65.1
2016-05-12T01:55:53.960Z,65.4
2016-05-12T01:56:04.117Z,65.2
2016-05-12T01:56:14.117Z,64.9
2016-05-12T01:56:24.273Z,65.1
2016-05-12T01:56:34.273Z,64.8
2016-05-12T01:56:44.291Z,64.9
2016-05-12T01:56:54.291Z,65.2
2016-05-12T01:57:04.291Z,65.1
2016-05-12T01:57:14.291Z,65
2016-05-12T01:57:24.291Z,65.1
2016-05-12T01:57:34.135Z,64.9
2016-05-12T01:57:44.153Z,65.1
2016-05-12T01:57:54.293Z,65.1
2016-05-12T01:58:04.293Z,65.2
2016-05-12T01:58:14.325Z,65
2016-05-12T01:58:24.309Z,65.1
2016-05-12T01:58:34.309Z,65.1
2016-05-12T01:58:44.328Z,65
2016-05-12T01:58:54.328Z,65.1
2016-05-12T01:59:04.328Z,65.3
2016-05-12T01:59:14.312Z,65.4
2016-05-12T01:59:24.328Z,65.4
2016-05-12T01:59:34.328Z,65.5
2016-05-12T01:59:44.331Z,65.3
2016-05-12T01:59:54.346Z,65.3
2016-05-12T02:00:04.346Z,65.4
2016-05-12T02:00:14.346Z,65.5
2016-05-12T02:00:24.346Z,65.3
2016-05-12T02:00:34.346Z,65.4
2016-05-12T02:00:44.192Z,66
2016-05-12T02:00:54.348Z,66
2016-05-12T02:01:04.348Z,65.9
2016-05-12T02:01:14.364Z,65.8
2016-05-12T02:01:24.255Z,65.9
2016-05-12T02:01:34.208Z,66.1
2016-05-12T02:01:44.382Z,65.9
2016-05-12T02:01:54.600Z,65.7
2016-05-12T02:02:04.225Z,65.3
2016-05-12T02:02:14.366Z,66
2016-05-12T02:02:24.382Z,65.5
2016-05-12T02:02:34.397Z,65.8
2016-05-12T02:02:44.400Z,65.9
2016-05-12T02:02:54.228Z,66
2016-05-12T02:03:04.385Z,65.9
2016-05-12T02:03:14.385Z,65.8
2016-05-12T02:03:24.385Z,66
2016-05-12T02:03:34.400Z,65.9
2016-05-12T02:03:44.404Z,65.7
2016-05-12T02:03:54.404Z,65.6
2016-05-12T02:04:04.404Z,65.6
2016-05-12T02:04:14.404Z,65.5
2016-05-12T02:04:24.404Z,65.6
2016-05-12T02:04:34.107Z,65.5
2016-05-12T02:04:44.406Z,66.2
2016-05-12T02:04:54.422Z,65.5
2016-05-12T02:05:04.406Z,65.6
2016-05-12T02:05:14.437Z,65.6
2016-05-12T02:05:24.437Z,66.2
2016-05-12T02:05:34.422Z,66.1
2016-05-12T02:05:44.439Z,66.1
2016-05-12T02:05:54.283Z,66
2016-05-12T02:06:04.283Z,65.8
2016-05-12T02:06:14.439Z,66.4
2016-05-12T02:06:24.439Z,66.3
2016-05-12T02:06:34.439Z,66.3
2016-05-12T02:06:44.302Z,66.3
2016-05-12T02:06:54.458Z,66.4
2016-05-12T02:07:04.458Z,66.1
2016-05-12T02:07:14.458Z,66.5
2016-05-12T02:07:24.302Z,66.1
2016-05-12T02:07:34.317Z,66.1
2016-05-12T02:07:44.461Z,66.1
2016-05-12T02:07:54.477Z,66.3
2016-05-12T02:08:04.477Z,66.1
2016-05-12T02:08:14.477Z,66.2
2016-05-12T02:08:24.461Z,66.1
2016-05-12T02:08:34.492Z,66.3
2016-05-12T02:08:44.480Z,66.4
2016-05-12T02:08:54.495Z,66.2
2016-05-12T02:09:04.480Z,66.2
2016-05-12T02:09:14.511Z,66.2
2016-05-12T02:09:24.495Z,66.3
2016-05-12T02:09:34.495Z,66.2
2016-05-12T02:09:44.497Z,66.1
2016-05-12T02:09:54.497Z,66
2016-05-12T02:10:04.357Z,66.1
2016-05-12T02:10:14.513Z,66.1
2016-05-12T02:10:24.513Z,66.1
2016-05-12T02:10:34.513Z,66.1
2016-05-12T02:10:44.500Z,66
2016-05-12T02:10:54.375Z,66.2
2016-05-12T02:11:04.516Z,66.1
2016-05-12T02:11:14.516Z,66.1
2016-05-12T02:11:24.375Z,66.3
2016-05-12T02:11:34.516Z,66.2
2016-05-12T02:11:44.378Z,66.2
2016-05-12T02:11:54.519Z,66.2
2016-05-12T02:12:04.535Z,66.1
2016-05-12T02:12:14.238Z,66.2
2016-05-12T02:12:24.535Z,66.2
2016-05-12T02:12:34.550Z,66.2
2016-05-12T02:12:44.552Z,66.1
2016-05-12T02:12:54.552Z,65.9
2016-05-12T02:13:04.552Z,66
2016-05-12T02:13:14.552Z,66.3
2016-05-12T02:13:24.396Z,66.2
2016-05-12T02:13:34.552Z,66.3
2016-05-12T02:13:44.555Z,66.3
2016-05-12T02:13:54.555Z,66.2
2016-05-12T02:14:04.571Z,66.7
2016-05-12T02:14:14.571Z,66.4
2016-05-12T02:14:24.586Z,66.9